19:42
Airports
History
Links
Donate
Help keep this website running!
PayPal
Bitcoin
Information on this page is community maintained and may be outdated or inaccurate and is intended for reference only or PC simulator navigating!
Always use approved charts for navigating.
CYCN
COCHRANE
COCHRANE (CYCN)
Cochrane, Ontario, Canada
(U)
Lat/Lng:49° 6' 20" N / 81° 0' 49" W
49.105556 / -81.013611
Elevation:861'ft 262mMSL
ID / ICAO:CYCN
Runways:1
Longest:(13-31) 1,384.0m 4,541ft Asphalt
Distance To
Airport ID:
Airport Radio Frequencies
CTAF: 122.8
Nearby VORs <50NM
Nearby NDBs
Nearby WeatherUpdated 03-28-17 19:00 GMT
Nearby weather at CYTS, Timmins located 40.5 nautical miles from CYCN
Altimeter: 30.12
Visibility: 15.0 statute miles
Wind: 8 knots (330°)
Temp: 3°c 37°f
Humidity: 64.6%

METAR: CYTS 281900Z 33008KT 300V020 15SM OVC028 03/M03 A3012 RMK SC8 CIG RAG SLP215

(Powered by phpweather)
Runway 13 / 31
Dimensions:1384 x 30.5m 4541' x 100'ft
Surface:Asphalt
Edge Lights:Medium intensity
Runway 13 [A]Runway 31 [B]
Heading:119°TH 299°TH
Lat:
Lng:
49° 6' 31"N
81° 1' 19"W
49° 6' 9"N
81° 0' 19"W
TDZ:Yes, lighted
Google Map
Nearby Airports
(U) Iroquois Falls 27.1 NM
NE4 SSE 158°
(U) Timmins 40.5 NM
CYTS (WX) SSW 204°
(U) KAPUSKASING 68.9 NM
CYYU (WX) WNW 288°
(U) KIRKLAND LAKE 77.8 NM
CYKX SE 142°
(U) La Sarre 84.2 NM
SR8 E 98°
(U) TIMISKAMING RGNL 111.1 NM
CYXR (WX) SSE 151°
(U) Rouyn-noranda 117.2 NM
CYUY (WX) ESE 122°
VFR Chart
Flight Planning at SkyVector.com